Impacts METAR Board
IDs:

KVCT - Victoria Rgnl, TX, US

Updated at: 1300 UTC 14 Dec 2019
Potential Impact None Slight Moderate High
Time 14/01Z 14/02Z 14/03Z 14/04Z 14/05Z 14/06Z 14/07Z 14/08Z 14/09Z 14/10Z 14/11Z 14/12Z 14/13Z
Temp60 58 56 54 51 52 50 48 47 47 46 46 45
Dewpt48 48 49 46 46 46 45 44 43 42 43 43 43
Altim29.82 29.84 29.84 29.86 29.88 29.87 29.86 29.86 29.87 29.86 29.85 29.86 29.87
VIS10 10 10 4 10 8 10 10 10 10 10 10 10
CIG-- -- -- -- -- -- -- -- -- -- -- -- --
CoverCLRCLRCLRCLRCLRCLRCLRCLRCLRCLRCLRCLRCLR
FltCatVFRVFRVFRMVFRVFRVFRVFRVFRVFRVFRVFRVFRVFR
WX------HZ------------------
WDir000010010301000030
WSpd0 0 0 0 7 0 4 7 3 0 0 0 4
WGst-- -- -- -- -- -- -- -- -- -- -- -- --
Raw hourly METARs
KVCT 140051Z 00000KT 10SM CLR 16/09 A2982 RMK AO2 SLP098 T01560089
KVCT 140151Z 00000KT 10SM CLR 14/09 A2984 RMK AO2 SLP103 T01440089
KVCT 140251Z 00000KT 10SM CLR 13/09 A2984 RMK AO2 SLP105 T01330094 51010
KVCT 140351Z AUTO 00000KT 4SM HZ CLR 12/08 A2986 RMK AO2 SLP111 T01220078
KVCT 140451Z AUTO 01007KT 10SM CLR 11/08 A2988 RMK AO2 SLP116 T01060078
KVCT 140551Z AUTO 00000KT 8SM CLR 11/08 A2987 RMK AO2 SLP112 T01110078 10211 20106 402610106 50008
KVCT 140651Z AUTO 01004KT 10SM CLR 10/07 A2986 RMK AO2 SLP109 T01000072
KVCT 140751Z AUTO 03007KT 10SM CLR 09/07 A2986 RMK AO2 SLP109 T00890067
KVCT 140851Z AUTO 01003KT 10SM CLR 08/06 A2987 RMK AO2 SLP112 T00830061 55000
KVCT 140951Z AUTO 00000KT 10SM CLR 08/06 A2986 RMK AO2 SLP111 T00830056
KVCT 141051Z AUTO 00000KT 10SM CLR 08/06 A2985 RMK AO2 SLP107 T00780061
KVCT 141151Z AUTO 00000KT 10SM CLR 08/06 A2986 RMK AO2 SLP109 T00780061 10111 20072 55004
KVCT 141251Z 03004KT 10SM CLR 07/06 A2987 RMK AO2 SLP114 T00720061



Page loaded:  13:49 UTC  |   05:49 AM Pacific  |   06:49 AM Mountain  |   07:49 AM Central  |   08:49 AM Eastern

 

ADVISORIES

FORECASTS

FORECASTS

OBSERVATIONS

USER TOOLS

ABOUT US